KTUS/TUS METAR and TAF weather

Enter ICAO airport designator
Station Type Date Time Source
KTUS METAR 2019/04/25 17:53 UTC NOAA

KTUS 251753Z 34008KT 10SM CLR 30/M01 A3005 RMK AO2 SLP131 T03001006 10300 20144 58004


Station Type Date Time Source
KTUS Decoded METAR 2019/04/25 17:53 UTC NOAA

TUCSON INTERNATIONAL AIRPORT , AZ, United States (KTUS) 32-08N 110-57W 786M
Apr 25, 2019 - 01:53 PM EDT / 2019.04.25 1753 UTC
Wind: from the NNW (340 degrees) at 9 MPH (8 KT):0
Visibility: 10 mile(s):0
Sky conditions: clear
Temperature: 86.0 F (30.0 C)
Dew Point: 30.9 F (-0.6 C)
Relative Humidity: 13%
Pressure (altimeter): 30.05 in. Hg (1017 hPa)
Pressure tendency: 0.01 inches (0.4 hPa) lower than three hours ago
ob: KTUS 251753Z 34008KT 10SM CLR 30/M01 A3005 RMK AO2 SLP131 T03001006 10300 20144 58004
cycle: 18

Station Type Date Time Source
KTUS TAF 2019/04/25 18:42 UTC NOAA

TAF KTUS 251740Z 2518/2618 VRB04KT P6SM SKC
FM251900 32008KT P6SM SKC
FM260400 25005KT P6SM SKC
FM260700 15006KT P6SM SKC

Example: see airport list